Time;durP1;ratioP1;P1;durP2;ratioP2;P2;SDS_P1;SDS_P2;PMS_P1;PMS_P2;Temp;Humidity;BMP_temperature;BMP_pressure;BME280_temperature;BME280_humidity;BME280_pressure;Samples;Min_cycle;Max_cycle;Signal;HPM_P1;HPM_P2
2022/03/21 00:00:29;;;;;;;14.70;4.28;;;3.90;98.10;3.50;100315.00;;;;4885232;28;92022;-64
2022/03/21 00:02:57;;;;;;;13.55;4.68;;;3.90;98.10;3.50;100300.00;;;;4889014;28;92520;-64
2022/03/21 00:05:25;;;;;;;10.98;3.72;;;3.90;98.10;3.50;100320.00;;;;4886420;28;92830;-64
2022/03/21 00:07:51;;;;;;;11.55;4.03;;;3.90;98.10;3.50;100312.00;;;;4889401;28;92401;-65
2022/03/21 00:10:18;;;;;;;11.27;4.15;;;3.90;98.10;3.40;100322.00;;;;4890980;28;92502;-64
2022/03/21 00:12:45;;;;;;;11.60;4.88;;;3.80;98.20;3.50;100335.00;;;;4888012;28;93761;-63
2022/03/21 00:15:11;;;;;;;12.23;4.28;;;3.90;98.10;3.40;100316.00;;;;4871185;28;92183;-64
2022/03/21 00:17:41;;;;;;;10.77;4.32;;;3.80;98.20;3.40;100326.00;;;;4889777;28;93098;-64
2022/03/21 00:20:10;;;;;;;12.07;4.75;;;3.90;98.30;3.40;100325.00;;;;4900893;28;92533;-64
2022/03/21 00:22:38;;;;;;;11.88;4.40;;;3.80;98.30;3.40;100321.00;;;;4888477;28;93903;-64
2022/03/21 00:25:06;;;;;;;12.63;4.40;;;3.70;98.40;3.30;100297.00;;;;4890392;28;94361;-63
2022/03/21 00:27:34;;;;;;;13.38;4.47;;;3.70;98.50;3.30;100299.00;;;;4883590;28;92051;-64
2022/03/21 00:30:05;;;;;;;11.63;4.28;;;3.70;98.50;3.30;100294.00;;;;4882493;28;92466;-64
2022/03/21 00:32:32;;;;;;;12.35;4.40;;;3.70;98.60;3.20;100297.00;;;;4877759;28;92713;-64
2022/03/21 00:34:58;;;;;;;10.43;4.28;;;3.60;98.60;3.20;100292.00;;;;4871810;28;92362;-64
2022/03/21 00:37:26;;;;;;;10.40;4.07;;;3.60;98.70;3.20;100282.00;;;;4891749;28;92074;-64
2022/03/21 00:39:52;;;;;;;10.60;3.75;;;3.60;98.70;3.20;100288.00;;;;4897861;28;91369;-64
2022/03/21 00:42:20;;;;;;;10.63;3.90;;;3.60;98.70;3.10;100286.00;;;;4889398;28;92578;-64
2022/03/21 00:44:46;;;;;;;12.20;3.97;;;3.60;98.80;3.20;100284.00;;;;4894192;28;92170;-64
2022/03/21 00:47:14;;;;;;;13.15;4.40;;;3.60;98.80;3.20;100276.00;;;;4890233;28;94005;-64
2022/03/21 00:49:41;;;;;;;11.13;4.22;;;3.50;98.80;3.10;100288.00;;;;4884396;28;92164;-63
2022/03/21 00:52:08;;;;;;;12.60;4.07;;;3.50;99.00;3.00;100284.00;;;;4874984;28;92797;-63
2022/03/21 00:54:34;;;;;;;11.20;4.25;;;3.40;99.10;3.00;100295.00;;;;4888899;28;93889;-64
2022/03/21 00:57:01;;;;;;;14.23;4.70;;;3.40;99.10;3.00;100284.00;;;;4889180;28;92661;-63
2022/03/21 00:59:28;;;;;;;13.30;4.53;;;3.40;99.20;2.90;100293.00;;;;4892754;28;92572;-63
2022/03/21 01:01:54;;;;;;;10.75;3.85;;;3.30;99.30;2.90;100297.00;;;;4874285;28;92680;-63
2022/03/21 01:04:20;;;;;;;12.50;4.65;;;3.30;99.40;2.90;100300.00;;;;4894005;28;92845;-64
2022/03/21 01:06:47;;;;;;;11.48;4.38;;;3.30;99.40;2.90;100293.00;;;;4894462;28;92873;-64
2022/03/21 01:09:16;;;;;;;11.57;4.28;;;3.30;99.50;2.90;100290.00;;;;4897345;28;92071;-64
2022/03/21 01:11:43;;;;;;;10.77;3.70;;;3.30;99.50;2.90;100295.00;;;;4873287;28;94134;-64
2022/03/21 01:14:11;;;;;;;14.90;5.00;;;3.30;99.50;2.90;100299.00;;;;4889807;28;94945;-64
2022/03/21 01:16:38;;;;;;;16.65;5.53;;;3.30;99.50;2.80;100298.00;;;;4893342;28;92077;-64
2022/03/21 01:19:06;;;;;;;13.13;5.05;;;3.20;99.60;2.70;100291.00;;;;4891704;28;92246;-64
2022/03/21 01:21:33;;;;;;;14.68;5.75;;;3.10;99.90;2.60;100281.00;;;;4887462;28;92531;-64
2022/03/21 01:24:00;;;;;;;13.48;5.75;;;3.00;99.90;2.50;100277.00;;;;4889478;28;92827;-64
2022/03/21 01:26:26;;;;;;;14.13;5.03;;;2.90;99.90;2.40;100292.00;;;;4892616;28;92200;-64
2022/03/21 01:28:52;;;;;;;17.63;5.80;;;2.90;99.90;2.30;100288.00;;;;4891394;28;91652;-64
2022/03/21 01:31:18;;;;;;;14.27;5.53;;;2.70;99.90;2.20;100272.00;;;;4894592;28;93959;-64
2022/03/21 01:33:45;;;;;;;14.18;5.22;;;2.60;99.90;2.20;100265.00;;;;4892460;28;93233;-64
2022/03/21 01:36:11;;;;;;;14.85;5.28;;;2.70;99.90;2.10;100272.00;;;;4892407;28;92957;-64
2022/03/21 01:38:37;;;;;;;15.63;5.25;;;2.60;99.90;2.10;100279.00;;;;4894124;28;92013;-63
2022/03/21 01:41:03;;;;;;;13.43;5.68;;;2.60;99.90;2.10;100271.00;;;;4892072;28;92643;-64
2022/03/21 01:43:29;;;;;;;14.15;5.57;;;2.60;99.90;2.10;100284.00;;;;4893551;28;92868;-63
2022/03/21 01:45:55;;;;;;;13.77;5.43;;;2.60;99.90;2.10;100288.00;;;;4893657;28;92058;-63
2022/03/21 01:48:22;;;;;;;15.10;6.43;;;2.50;99.90;2.00;100279.00;;;;4890979;28;92386;-64
2022/03/21 01:50:48;;;;;;;18.10;6.55;;;2.50;99.90;1.90;100279.00;;;;4882096;28;94922;-63
2022/03/21 01:56:00;;;;;;;15.25;6.68;;;2.30;99.90;1.80;100258.00;;;;4891561;28;92408;-64
2022/03/21 01:58:26;;;;;;;15.30;6.72;;;2.20;99.90;1.70;100260.00;;;;4882129;28;92347;-63
2022/03/21 02:00:52;;;;;;;15.25;6.43;;;2.20;99.90;1.70;100278.00;;;;4882788;28;93944;-64
2022/03/21 02:03:22;;;;;;;16.27;6.78;;;2.20;99.90;1.70;100289.00;;;;4875133;28;93227;-64
2022/03/21 02:05:49;;;;;;;15.65;6.43;;;2.20;99.90;1.60;100282.00;;;;4884150;28;92120;-64
2022/03/21 02:08:17;;;;;;;15.93;6.47;;;2.10;99.90;1.60;100288.00;;;;4880396;28;92099;-66
2022/03/21 02:10:45;;;;;;;12.77;5.93;;;2.10;99.90;1.60;100287.00;;;;4892859;28;92741;-66
2022/03/21 02:13:14;;;;;;;14.32;5.97;;;2.10;99.90;1.70;100288.00;;;;4891135;28;93159;-65
2022/03/21 02:15:40;;;;;;;14.27;6.05;;;2.20;99.90;1.60;100279.00;;;;4894932;28;92058;-65
2022/03/21 02:18:08;;;;;;;14.40;6.72;;;2.10;99.90;1.60;100268.00;;;;4892859;28;91854;-65
2022/03/21 02:20:36;;;;;;;14.10;6.25;;;2.10;99.90;1.60;100280.00;;;;4878051;28;92527;-64
2022/03/21 02:23:36;;;;;;;14.73;5.90;;;2.00;99.90;1.60;100276.00;;;;4884812;28;94989;-64
2022/03/21 02:26:02;;;;;;;14.07;5.75;;;2.00;99.90;1.50;100276.00;;;;4878448;28;93126;-64
2022/03/21 02:28:31;;;;;;;14.57;5.45;;;2.00;99.90;1.40;100264.00;;;;4884230;28;92292;-64
2022/03/21 02:30:58;;;;;;;15.85;6.35;;;1.90;99.90;1.40;100270.00;;;;4868686;28;92691;-64
2022/03/21 02:33:27;;;;;;;14.57;6.20;;;1.90;99.90;1.30;100275.00;;;;4885833;28;92363;-64
2022/03/21 02:35:56;;;;;;;15.10;6.22;;;1.80;99.90;1.30;100278.00;;;;4865239;28;92672;-64
2022/03/21 02:38:25;;;;;;;12.98;5.95;;;1.80;99.90;1.30;100274.00;;;;4874831;28;92566;-66
2022/03/21 02:40:52;;;;;;;15.00;5.70;;;1.80;99.90;1.20;100280.00;;;;4872633;28;93693;-63
2022/03/21 02:43:19;;;;;;;13.93;5.80;;;1.70;99.90;1.20;100288.00;;;;4867829;28;95150;-64
2022/03/21 02:45:45;;;;;;;12.77;5.60;;;1.70;99.90;1.20;100273.00;;;;4899956;28;91979;-64
2022/03/21 02:48:14;;;;;;;12.65;5.63;;;1.60;99.90;1.10;100270.00;;;;4899265;28;92600;-64
2022/03/21 02:50:59;;;;;;;13.93;5.80;;;1.60;99.90;1.00;100274.00;;;;4891873;28;93681;-65
2022/03/21 02:53:29;;;;;;;14.73;6.30;;;1.50;99.90;1.10;100287.00;;;;4896780;28;93238;-64
2022/03/21 02:55:57;;;;;;;13.90;6.10;;;1.50;99.90;1.00;100276.00;;;;4888528;28;93054;-64
2022/03/21 02:58:24;;;;;;;12.50;5.13;;;1.50;99.90;1.00;100270.00;;;;4874631;28;92223;-64
2022/03/21 03:00:50;;;;;;;14.73;5.75;;;1.50;99.90;1.00;100281.00;;;;4879530;28;92849;-64
2022/03/21 03:03:16;;;;;;;15.38;6.35;;;1.50;99.90;1.00;100282.00;;;;4887825;28;92485;-64
2022/03/21 03:05:42;;;;;;;17.00;6.25;;;1.50;99.90;1.00;100289.00;;;;4888541;28;92430;-64
2022/03/21 03:08:09;;;;;;;17.15;6.35;;;1.40;99.90;0.90;100281.00;;;;4888639;28;91274;-64
2022/03/21 03:10:35;;;;;;;13.85;6.03;;;1.40;99.90;0.90;100275.00;;;;4883699;28;92533;-64
2022/03/21 03:13:02;;;;;;;16.40;6.25;;;1.40;99.90;0.90;100267.00;;;;4880576;28;93077;-65
2022/03/21 03:15:28;;;;;;;11.80;5.45;;;1.40;99.90;0.90;100265.00;;;;4874237;28;92963;-64
2022/03/21 03:17:54;;;;;;;13.70;5.95;;;1.40;99.90;0.90;100268.00;;;;4891134;28;92374;-64
2022/03/21 03:20:21;;;;;;;17.77;6.20;;;1.40;99.90;0.90;100266.00;;;;4883506;28;92511;-64
2022/03/21 03:22:47;;;;;;;15.63;6.38;;;1.40;99.90;0.90;100261.00;;;;4893257;28;92285;-64
2022/03/21 03:25:14;;;;;;;17.75;6.43;;;1.40;99.90;0.90;100264.00;;;;4878405;28;92348;-65
2022/03/21 03:27:40;;;;;;;17.13;6.28;;;1.30;99.90;0.90;100264.00;;;;4881239;28;92470;-64
2022/03/21 03:30:06;;;;;;;15.57;5.78;;;1.30;99.90;0.80;100249.00;;;;4893471;28;93750;-64
2022/03/21 03:32:33;;;;;;;12.10;5.38;;;1.30;99.90;0.80;100255.00;;;;4859568;28;92659;-65
2022/03/21 03:35:00;;;;;;;13.77;5.80;;;1.30;99.90;0.80;100254.00;;;;4880106;28;92728;-64
2022/03/21 03:37:26;;;;;;;14.50;6.82;;;1.30;99.90;0.70;100245.00;;;;4854074;28;92128;-64
2022/03/21 03:39:52;;;;;;;13.73;6.10;;;1.20;99.90;0.80;100242.00;;;;4891410;28;94519;-64
2022/03/21 03:42:20;;;;;;;14.63;6.03;;;1.20;99.90;1.00;100239.00;;;;4878582;28;94426;-63
2022/03/21 03:44:47;;;;;;;15.43;6.70;;;1.30;99.90;1.20;100249.00;;;;4897979;28;92728;-64
2022/03/21 03:47:13;;;;;;;15.00;5.80;;;1.40;99.90;1.40;100247.00;;;;4894464;28;92160;-64
2022/03/21 03:49:39;;;;;;;14.90;5.90;;;1.50;99.90;1.50;100260.00;;;;4888312;28;93702;-64
2022/03/21 03:52:05;;;;;;;14.68;5.75;;;1.60;99.90;1.70;100243.00;;;;4882409;28;93576;-65
2022/03/21 03:54:31;;;;;;;13.60;5.05;;;1.70;99.90;1.90;100235.00;;;;4880117;28;92360;-65
2022/03/21 03:56:57;;;;;;;10.65;5.47;;;1.80;99.90;2.10;100235.00;;;;4891495;28;91345;-64
2022/03/21 03:59:24;;;;;;;15.35;5.43;;;1.90;99.90;2.20;100231.00;;;;4891699;28;92672;-64
2022/03/21 04:01:50;;;;;;;16.20;5.68;;;2.00;99.90;2.40;100226.00;;;;4888111;28;93562;-64
2022/03/21 04:04:16;;;;;;;12.57;5.10;;;2.10;99.90;2.60;100226.00;;;;4864285;28;93090;-65
2022/03/21 04:06:43;;;;;;;13.35;5.43;;;2.20;99.90;2.70;100233.00;;;;4883532;28;92277;-65
2022/03/21 04:09:09;;;;;;;12.35;5.45;;;2.20;99.90;2.70;100241.00;;;;4884950;28;92631;-64
2022/03/21 04:11:35;;;;;;;14.32;4.85;;;2.30;99.90;2.90;100230.00;;;;4884800;28;92298;-65
2022/03/21 04:14:02;;;;;;;14.55;5.88;;;2.30;99.90;3.00;100228.00;;;;4885039;28;92511;-64
2022/03/21 04:16:28;;;;;;;15.48;5.63;;;2.30;99.90;3.10;100238.00;;;;4890201;28;92077;-64
2022/03/21 04:18:57;;;;;;;13.65;5.78;;;2.40;99.90;3.10;100235.00;;;;4882440;28;92162;-64
2022/03/21 04:21:24;;;;;;;11.63;4.78;;;2.40;99.90;3.20;100237.00;;;;4885999;28;92397;-65
2022/03/21 04:23:50;;;;;;;13.05;4.93;;;2.50;99.90;3.20;100239.00;;;;4886274;28;92475;-65
2022/03/21 04:26:16;;;;;;;16.50;5.53;;;2.50;99.90;3.20;100236.00;;;;4893033;28;92340;-64
2022/03/21 04:28:43;;;;;;;12.45;4.85;;;2.50;99.90;3.20;100233.00;;;;4879901;28;93786;-64
2022/03/21 04:31:09;;;;;;;11.90;4.90;;;2.50;99.90;3.40;100246.00;;;;4867133;28;93291;-65
2022/03/21 04:33:35;;;;;;;12.88;4.90;;;2.60;99.90;3.50;100240.00;;;;4884676;28;92522;-64
2022/03/21 04:36:02;;;;;;;11.82;4.82;;;2.60;99.90;3.40;100227.00;;;;4894382;28;92385;-64
2022/03/21 04:38:28;;;;;;;12.85;4.63;;;2.60;99.90;3.50;100223.00;;;;4885399;28;92697;-64
2022/03/21 04:40:54;;;;;;;11.57;4.78;;;2.60;99.90;3.60;100240.00;;;;4888783;28;92216;-65
2022/03/21 04:43:23;;;;;;;16.42;5.30;;;2.70;99.90;3.80;100236.00;;;;4888645;28;92094;-64
2022/03/21 04:45:49;;;;;;;12.00;4.88;;;2.70;99.90;3.70;100228.00;;;;4883389;28;91599;-65
2022/03/21 04:48:16;;;;;;;16.50;5.55;;;2.80;99.90;3.80;100229.00;;;;4886521;28;93145;-64
2022/03/21 04:50:43;;;;;;;13.07;4.78;;;2.80;99.90;3.80;100242.00;;;;4887654;28;93837;-63
2022/03/21 04:53:10;;;;;;;13.05;5.10;;;2.80;99.90;3.80;100232.00;;;;4892044;28;93386;-65
2022/03/21 04:55:41;;;;;;;13.60;5.45;;;2.80;99.90;3.90;100221.00;;;;4892757;28;92011;-63
2022/03/21 04:58:08;;;;;;;12.52;4.40;;;2.90;99.90;3.80;100213.00;;;;4884025;28;93575;-63
2022/03/21 05:00:36;;;;;;;13.07;4.55;;;2.80;99.90;3.60;100228.00;;;;4879164;28;94595;-64
2022/03/21 05:03:07;;;;;;;17.40;5.43;;;2.70;99.90;3.70;100223.00;;;;4896339;28;92526;-64
2022/03/21 05:05:37;;;;;;;16.50;5.53;;;2.80;99.90;3.60;100233.00;;;;4893348;28;92253;-65
2022/03/21 05:08:05;;;;;;;14.65;5.18;;;2.70;99.90;3.30;100219.00;;;;4877167;28;94426;-64
2022/03/21 05:10:32;;;;;;;15.60;5.25;;;2.60;99.90;3.10;100226.00;;;;4880419;28;93060;-64
2022/03/21 05:12:58;;;;;;;14.02;5.40;;;2.60;99.90;2.90;100234.00;;;;4897041;28;91934;-64
2022/03/21 05:15:25;;;;;;;14.10;5.15;;;2.50;99.90;2.60;100245.00;;;;4892705;28;92041;-64
2022/03/21 05:17:52;;;;;;;14.68;4.75;;;2.50;99.90;2.30;100247.00;;;;4882531;28;93827;-64
2022/03/21 05:20:19;;;;;;;14.48;5.10;;;2.40;99.90;2.10;100236.00;;;;4902246;28;93271;-64
2022/03/21 05:31:08;;;;;;;14.13;5.28;;;2.40;99.90;2.10;100243.00;;;;4883117;28;93484;-63
2022/03/21 05:36:26;;;;;;;19.92;5.82;;;2.50;99.90;2.20;100243.00;;;;4887378;28;91260;-64
2022/03/21 05:38:53;;;;;;;13.05;5.97;;;2.50;99.90;2.30;100235.00;;;;4892008;28;93129;-65
2022/03/21 05:41:19;;;;;;;15.85;5.60;;;2.60;99.90;2.40;100235.00;;;;4892668;28;93478;-65
2022/03/21 05:43:46;;;;;;;16.58;5.70;;;2.60;99.90;2.40;100221.00;;;;4882941;28;93812;-65
2022/03/21 05:46:12;;;;;;;13.50;5.40;;;2.70;99.90;2.40;100221.00;;;;4893337;28;92403;-65
2022/03/21 05:51:33;;;;;;;15.45;5.10;;;2.70;99.90;2.50;100233.00;;;;4893116;28;93071;-65
2022/03/21 05:54:03;;;;;;;13.13;5.85;;;2.70;99.90;2.40;100234.00;;;;4881172;28;92820;-67
2022/03/21 05:56:30;;;;;;;14.65;6.28;;;2.70;99.90;2.40;100225.00;;;;4880108;28;92395;-67
2022/03/21 05:59:00;;;;;;;15.02;5.95;;;2.70;99.90;2.40;100235.00;;;;4895468;28;93829;-66
2022/03/21 06:01:43;;;;;;;16.80;5.82;;;2.70;99.90;2.40;100228.00;;;;4890357;28;91400;-67
2022/03/21 06:04:10;;;;;;;17.13;6.90;;;2.70;99.90;2.60;100244.00;;;;4894540;28;92478;-68
2022/03/21 06:06:36;;;;;;;14.45;6.47;;;2.90;99.90;2.70;100231.00;;;;4888263;28;92438;-67
2022/03/21 06:09:03;;;;;;;12.75;5.72;;;3.00;99.90;2.80;100239.00;;;;4895840;28;93693;-67
2022/03/21 06:11:29;;;;;;;16.95;6.38;;;3.10;99.90;2.80;100251.00;;;;4872718;28;95257;-70
2022/03/21 06:13:55;;;;;;;13.80;6.15;;;3.20;99.90;2.90;100233.00;;;;4890756;28;92661;-68
2022/03/21 06:16:21;;;;;;;15.60;5.55;;;3.20;99.90;3.00;100235.00;;;;4890588;28;92490;-68
2022/03/21 06:18:47;;;;;;;12.68;5.57;;;3.30;99.90;3.10;100231.00;;;;4885709;28;92696;-68
2022/03/21 06:21:14;;;;;;;14.85;6.20;;;3.40;99.90;3.20;100249.00;;;;4888885;28;93527;-69
2022/03/21 06:23:40;;;;;;;15.75;6.70;;;3.50;99.90;3.30;100249.00;;;;4891346;28;92100;-68
2022/03/21 06:26:07;;;;;;;16.05;6.10;;;3.60;99.90;3.40;100244.00;;;;4889501;28;91346;-69
2022/03/21 06:28:36;;;;;;;17.98;5.93;;;3.70;99.70;3.50;100245.00;;;;4891252;28;92642;-69
2022/03/21 06:31:03;;;;;;;13.52;6.00;;;3.80;99.40;3.70;100237.00;;;;4889519;28;92614;-70
2022/03/21 06:33:31;;;;;;;19.02;6.57;;;3.90;99.30;3.70;100236.00;;;;4884667;28;93291;-69
2022/03/21 06:36:00;;;;;;;18.25;5.95;;;4.10;99.20;3.80;100235.00;;;;4880200;28;92273;-71
2022/03/21 06:38:26;;;;;;;14.02;5.32;;;4.10;98.80;3.90;100263.00;;;;4870897;28;92687;-71
2022/03/21 06:40:52;;;;;;;18.25;5.50;;;4.20;98.60;4.00;100244.00;;;;4899763;28;93457;-64
2022/03/21 06:43:20;;;;;;;15.07;5.43;;;4.30;98.60;4.10;100233.00;;;;4892246;28;92047;-70
2022/03/21 06:45:47;;;;;;;13.60;4.90;;;4.40;98.40;4.10;100240.00;;;;4868474;28;92067;-69
2022/03/21 06:48:14;;;;;;;13.63;5.25;;;4.40;98.20;4.20;100233.00;;;;4893836;28;93781;-71
2022/03/21 06:50:40;;;;;;;14.40;5.38;;;4.50;98.00;4.30;100241.00;;;;4893078;28;92925;-70
2022/03/21 06:53:06;;;;;;;18.17;5.65;;;4.50;97.90;4.30;100249.00;;;;4892465;28;92097;-71
2022/03/21 06:55:35;;;;;;;13.35;4.43;;;4.60;97.70;4.40;100242.00;;;;4886517;28;92020;-71
2022/03/21 06:58:03;;;;;;;15.40;4.88;;;4.60;97.60;4.50;100249.00;;;;4867987;28;93441;-69
2022/03/21 07:00:31;;;;;;;11.18;4.88;;;4.70;97.40;4.60;100244.00;;;;4877879;28;92502;-71
2022/03/21 07:02:57;;;;;;;14.63;4.93;;;4.90;97.30;4.70;100240.00;;;;4880232;28;93323;-69
2022/03/21 07:05:26;;;;;;;14.75;5.22;;;5.00;97.00;4.80;100232.00;;;;4893183;28;92419;-71
2022/03/21 07:07:52;;;;;;;14.68;4.90;;;5.00;96.70;4.90;100225.00;;;;4895053;28;93692;-70
2022/03/21 07:10:18;;;;;;;16.48;4.95;;;5.10;96.30;5.00;100229.00;;;;4883631;28;92401;-71
2022/03/21 07:12:44;;;;;;;16.98;4.70;;;5.30;96.40;5.10;100219.00;;;;4890994;28;92013;-72
2022/03/21 07:15:10;;;;;;;12.43;4.78;;;5.40;96.20;5.20;100227.00;;;;4900372;28;91287;-71
2022/03/21 07:17:37;;;;;;;14.82;4.55;;;5.50;96.00;5.30;100223.00;;;;4893518;28;93771;-71
2022/03/21 07:20:04;;;;;;;14.35;4.30;;;5.60;95.80;5.30;100222.00;;;;4897577;28;92892;-69
2022/03/21 07:22:30;;;;;;;11.80;4.78;;;5.60;95.50;5.40;100230.00;;;;4887730;28;93257;-70
2022/03/21 07:24:56;;;;;;;13.68;4.43;;;5.70;95.40;5.50;100222.00;;;;4888255;28;92517;-71
2022/03/21 07:27:22;;;;;;;16.10;4.43;;;5.70;95.10;5.50;100225.00;;;;4891844;28;92909;-70
2022/03/21 07:29:49;;;;;;;17.10;4.50;;;5.70;94.80;5.60;100211.00;;;;4882125;28;92858;-70
2022/03/21 07:32:17;;;;;;;13.00;4.10;;;5.80;94.70;5.70;100224.00;;;;4892447;28;92329;-69
2022/03/21 07:34:43;;;;;;;15.18;4.25;;;5.90;94.30;5.80;100225.00;;;;4896116;28;92225;-70
2022/03/21 07:37:09;;;;;;;12.63;4.32;;;5.90;94.30;5.90;100229.00;;;;4886538;28;93762;-71
2022/03/21 07:39:37;;;;;;;11.50;3.78;;;6.10;94.10;6.00;100224.00;;;;4887231;28;92943;-71
2022/03/21 07:42:04;;;;;;;15.68;4.45;;;6.20;93.90;6.10;100228.00;;;;4890767;28;92476;-73
2022/03/21 07:47:20;;;;;;;14.45;4.07;;;6.40;93.40;6.20;100221.00;;;;4886138;28;94739;-72
2022/03/21 07:49:51;;;;;;;12.55;3.85;;;6.40;93.00;6.30;100221.00;;;;4893387;28;93847;-71
2022/03/21 07:52:19;;;;;;;10.93;3.17;;;6.60;92.70;6.50;100206.00;;;;4877612;28;92455;-74
2022/03/21 07:54:52;;;;;;;13.30;4.40;;;6.70;92.30;6.60;100204.00;;;;4887442;28;92412;-72
2022/03/21 07:57:23;;;;;;;13.75;3.95;;;6.80;92.30;6.60;100227.00;;;;4880599;28;92409;-71
2022/03/21 07:59:51;;;;;;;11.40;3.57;;;6.80;91.80;6.70;100202.00;;;;4885513;28;92521;-71
2022/03/21 08:02:21;;;;;;;13.07;3.47;;;6.90;91.80;6.90;100196.00;;;;4890382;28;92837;-71
2022/03/21 08:04:48;;;;;;;11.43;3.55;;;7.10;91.70;6.90;100192.00;;;;4867346;28;91845;-70
2022/03/21 08:07:15;;;;;;;13.38;3.33;;;7.10;91.40;7.00;100192.00;;;;4894424;28;92928;-70
2022/03/21 08:09:42;;;;;;;13.15;3.88;;;7.20;91.10;7.10;100219.00;;;;4883469;28;92302;-71
2022/03/21 08:12:12;;;;;;;9.98;3.55;;;7.30;91.00;7.20;100200.00;;;;4886565;28;93150;-71
2022/03/21 08:14:38;;;;;;;12.93;3.53;;;7.40;91.00;7.30;100196.00;;;;4898582;28;92087;-70
2022/03/21 08:17:05;;;;;;;14.93;3.80;;;7.40;90.80;7.30;100212.00;;;;4897972;28;92695;-70
2022/03/21 08:19:31;;;;;;;15.98;3.88;;;7.50;90.60;7.30;100204.00;;;;4890408;28;92558;-70
2022/03/21 08:21:58;;;;;;;16.40;4.13;;;7.50;90.30;7.40;100226.00;;;;4875379;28;92040;-70
2022/03/21 08:24:24;;;;;;;11.60;3.88;;;7.60;90.30;7.50;100211.00;;;;4869679;28;92100;-70
2022/03/21 08:26:53;;;;;;;14.50;3.53;;;7.70;90.30;7.50;100221.00;;;;4886689;28;93139;-71
2022/03/21 08:29:20;;;;;;;10.90;3.28;;;7.70;90.20;7.60;100210.00;;;;4897950;28;93422;-71
2022/03/21 08:31:46;;;;;;;10.75;3.28;;;7.70;89.70;7.70;100213.00;;;;4898173;28;92574;-72
2022/03/21 08:34:13;;;;;;;11.80;3.78;;;7.80;89.40;7.70;100217.00;;;;4895725;28;92001;-70
2022/03/21 08:36:39;;;;;;;16.30;3.90;;;7.90;89.60;7.80;100220.00;;;;4888780;28;94510;-70
2022/03/21 08:39:06;;;;;;;13.73;3.83;;;7.90;89.40;7.90;100222.00;;;;4888397;28;93654;-70
2022/03/21 08:41:32;;;;;;;13.30;3.65;;;8.00;88.90;8.00;100230.00;;;;4900243;28;92204;-71
2022/03/21 08:43:58;;;;;;;13.50;3.70;;;8.10;88.80;8.00;100224.00;;;;4887240;28;92078;-72
2022/03/21 08:46:26;;;;;;;10.82;3.78;;;8.20;88.20;8.10;100223.00;;;;4885455;28;92614;-72
2022/03/21 08:51:37;;;;;;;9.25;3.72;;;8.30;87.60;8.30;100238.00;;;;4894163;28;92644;-70
2022/03/21 08:54:05;;;;;;;11.48;3.25;;;8.40;84.70;8.30;100235.00;;;;4887691;28;91267;-70
2022/03/21 08:56:31;;;;;;;11.35;3.03;;;8.50;84.60;8.40;100247.00;;;;4869736;28;92539;-70
2022/03/21 08:58:58;;;;;;;11.52;4.13;;;8.50;84.20;8.40;100245.00;;;;4889186;28;93610;-71
2022/03/21 09:01:24;;;;;;;15.18;3.30;;;8.50;84.30;8.40;100229.00;;;;4891094;28;93117;-70
2022/03/21 09:03:51;;;;;;;10.15;3.28;;;8.50;84.90;8.40;100232.00;;;;4892547;28;92608;-70
2022/03/21 09:06:20;;;;;;;10.32;3.35;;;8.50;85.20;8.40;100225.00;;;;4896380;28;92867;-70
2022/03/21 09:08:50;;;;;;;12.30;3.60;;;8.50;85.50;8.50;100229.00;;;;4895705;28;93381;-70
2022/03/21 09:11:19;;;;;;;13.20;3.88;;;8.60;85.40;8.50;100217.00;;;;4898450;28;92118;-70
2022/03/21 09:13:46;;;;;;;10.50;3.38;;;8.60;85.30;8.50;100219.00;;;;4899069;28;92243;-70
2022/03/21 09:16:13;;;;;;;13.85;2.90;;;8.60;84.10;8.50;100213.00;;;;4899433;28;92618;-70
2022/03/21 09:18:43;;;;;;;13.20;3.60;;;8.60;83.90;8.50;100214.00;;;;4892321;28;91426;-70
2022/03/21 09:21:11;;;;;;;14.50;3.88;;;8.60;83.70;8.60;100210.00;;;;4902220;28;91924;-71
2022/03/21 09:23:39;;;;;;;10.20;3.08;;;8.70;83.90;8.60;100228.00;;;;4890948;28;92069;-71
2022/03/21 09:26:10;;;;;;;8.75;3.05;;;8.60;82.50;8.60;100211.00;;;;4887182;28;94615;-71
2022/03/21 09:28:38;;;;;;;;;;;8.70;82.40;8.60;100213.00;;;;4885800;28;94418;-64
2022/03/21 09:31:07;;;;;;;16.05;3.45;;;8.80;82.60;8.70;100212.00;;;;4888060;28;91979;-63
2022/03/21 09:33:36;;;;;;;12.85;3.17;;;8.90;83.10;8.80;100214.00;;;;4896683;28;92079;-67
2022/03/21 09:36:04;;;;;;;13.75;4.28;;;8.90;82.80;8.90;100219.00;;;;4895839;28;92637;-67
2022/03/21 09:38:31;;;;;;;13.57;3.28;;;9.00;82.30;9.00;100213.00;;;;4886860;28;92457;-67
2022/03/21 09:40:58;;;;;;;9.07;2.72;;;9.00;81.10;9.00;100197.00;;;;4900552;28;92411;-67
2022/03/21 09:43:24;;;;;;;9.43;3.22;;;9.10;81.30;9.10;100212.00;;;;4864767;28;91482;-67
2022/03/21 09:45:53;;;;;;;11.23;3.47;;;9.10;80.60;9.10;100206.00;;;;4885785;28;92038;-67
2022/03/21 09:48:20;;;;;;;12.98;3.35;;;9.20;80.60;9.10;100220.00;;;;4877910;28;92457;-67
2022/03/21 09:50:49;;;;;;;12.52;2.90;;;9.20;79.60;9.20;100206.00;;;;4883251;28;93066;-68
2022/03/21 09:53:16;;;;;;;12.73;3.00;;;9.30;80.00;9.20;100218.00;;;;4888386;28;92003;-67
2022/03/21 09:55:44;;;;;;;8.85;2.95;;;9.30;79.60;9.30;100242.00;;;;4887456;28;92914;-67
2022/03/21 09:58:11;;;;;;;10.77;2.88;;;9.40;76.90;9.40;100205.00;;;;4884501;28;92411;-67
2022/03/21 10:00:41;;;;;;;6.00;1.70;;;9.50;77.20;9.40;100212.00;;;;4886297;28;92080;-68
2022/03/21 10:03:08;;;;;;;11.75;2.80;;;9.50;76.00;9.40;100199.00;;;;4883062;28;92018;-70
2022/03/21 10:05:43;;;;;;;12.98;2.58;;;9.50;75.90;9.50;100198.00;;;;4895387;28;92837;-69
2022/03/21 10:08:18;;;;;;;12.65;2.70;;;9.60;76.10;9.50;100201.00;;;;4889496;28;92266;-69
2022/03/21 10:11:05;;;;;;;7.00;2.70;;;9.60;76.10;9.50;100214.00;;;;4881574;28;92115;-70
2022/03/21 10:13:38;;;;;;;9.05;2.60;;;9.60;73.20;9.60;100201.00;;;;4881097;28;92427;-70
2022/03/21 10:16:15;;;;;;;10.57;2.92;;;9.60;74.60;9.60;100214.00;;;;4881997;28;94203;-65
2022/03/21 10:18:53;;;;;;;12.23;3.45;;;9.70;74.80;9.70;100194.00;;;;4885838;28;94428;-65
2022/03/21 10:21:22;;;;;;;7.70;2.53;;;9.80;75.10;9.80;100192.00;;;;4896549;28;92418;-66
2022/03/21 10:24:06;;;;;;;9.93;2.97;;;9.80;75.30;9.80;100205.00;;;;4891004;28;92482;-66
2022/03/21 10:26:41;;;;;;;12.15;3.00;;;9.90;75.10;9.80;100203.00;;;;4876105;28;94319;-67
2022/03/21 10:29:11;;;;;;;12.15;3.20;;;9.90;75.20;9.90;100205.00;;;;4899114;28;92113;-65
2022/03/21 10:31:46;;;;;;;10.73;2.63;;;9.90;74.80;10.00;100205.00;;;;4871230;28;92051;-67
2022/03/21 10:34:19;;;;;;;8.88;2.75;;;10.00;72.20;9.90;100211.00;;;;4886326;28;91355;-67
2022/03/21 10:37:01;;;;;;;10.82;2.90;;;10.00;71.60;10.00;100204.00;;;;4873459;28;93326;-65
2022/03/21 10:39:30;;;;;;;8.20;2.80;;;10.00;72.80;10.10;100203.00;;;;4878048;28;93554;-66
2022/03/21 10:42:00;;;;;;;7.88;3.13;;;10.10;72.70;10.00;100207.00;;;;4875755;28;93367;-66
2022/03/21 10:44:27;;;;;;;8.15;2.25;;;10.10;72.40;10.00;100209.00;;;;4885378;28;92704;-67
2022/03/21 10:47:03;;;;;;;12.00;2.70;;;10.00;71.60;10.00;100198.00;;;;4871425;28;93659;-66
2022/03/21 10:49:46;;;;;;;7.95;2.40;;;10.00;72.10;10.00;100196.00;;;;4887404;28;92456;-66
2022/03/21 10:52:21;;;;;;;8.98;2.88;;;10.00;72.80;10.00;100200.00;;;;4873574;28;92428;-67
2022/03/21 10:54:50;;;;;;;8.13;2.40;;;10.00;71.00;10.00;100199.00;;;;4889620;28;92488;-66
2022/03/21 10:57:27;;;;;;;8.50;2.50;;;10.10;71.40;10.10;100185.00;;;;4873253;28;96635;-67
2022/03/21 11:00:11;;;;;;;7.72;2.33;;;10.10;71.70;10.10;100201.00;;;;4855108;28;95124;-66
2022/03/21 11:03:15;;;;;;;8.50;2.58;;;10.10;72.50;10.10;100199.00;;;;4888838;28;92611;-65
2022/03/21 11:05:48;;;;;;;10.50;3.15;;;10.20;72.70;10.20;100215.00;;;;4860772;28;92710;-65
2022/03/21 11:08:17;;;;;;;9.25;2.95;;;10.20;73.00;10.20;100219.00;;;;4893872;28;93540;-65
2022/03/21 11:10:45;;;;;;;9.20;2.72;;;10.30;73.50;10.20;100215.00;;;;4897056;28;93163;-67
2022/03/21 11:13:12;;;;;;;9.70;2.78;;;10.20;72.30;10.20;100207.00;;;;4891299;28;92399;-64
2022/03/21 11:15:40;;;;;;;11.15;3.03;;;10.30;72.30;10.20;100201.00;;;;4889788;28;92588;-65
2022/03/21 11:18:08;;;;;;;11.35;2.75;;;10.20;72.30;10.30;100214.00;;;;4845535;29;95255;-64
2022/03/21 11:20:34;;;;;;;10.50;3.15;;;10.30;72.60;10.30;100212.00;;;;4898035;28;93031;-64